sensor_id;sensor_type;location;lat;lon;timestamp;P1;durP1;ratioP1;P2;durP2;ratioP2
57023;SDS011;42916;54.346;18.562;2024-02-21T00:02:21;14.30;;;3.00;;
57023;SDS011;42916;54.346;18.562;2024-02-21T00:04:48;16.80;;;3.50;;
57023;SDS011;42916;54.346;18.562;2024-02-21T00:07:15;14.90;;;3.40;;
57023;SDS011;42916;54.346;18.562;2024-02-21T00:09:41;15.10;;;3.30;;
57023;SDS011;42916;54.346;18.562;2024-02-21T00:12:09;17.80;;;3.60;;
57023;SDS011;42916;54.346;18.562;2024-02-21T00:14:37;14.60;;;3.60;;
57023;SDS011;42916;54.346;18.562;2024-02-21T00:17:04;15.20;;;4.00;;
57023;SDS011;42916;54.346;18.562;2024-02-21T00:19:30;13.30;;;2.80;;
57023;SDS011;42916;54.346;18.562;2024-02-21T00:21:57;12.80;;;2.80;;
57023;SDS011;42916;54.346;18.562;2024-02-21T00:24:23;18.50;;;3.40;;
57023;SDS011;42916;54.346;18.562;2024-02-21T00:26:50;10.70;;;3.20;;
57023;SDS011;42916;54.346;18.562;2024-02-21T00:29:17;13.50;;;4.20;;
57023;SDS011;42916;54.346;18.562;2024-02-21T00:31:44;13.20;;;2.90;;
57023;SDS011;42916;54.346;18.562;2024-02-21T00:34:11;14.60;;;2.80;;
57023;SDS011;42916;54.346;18.562;2024-02-21T00:36:39;14.10;;;2.90;;
57023;SDS011;42916;54.346;18.562;2024-02-21T00:39:05;15.80;;;3.30;;
57023;SDS011;42916;54.346;18.562;2024-02-21T00:41:32;18.60;;;3.30;;
57023;SDS011;42916;54.346;18.562;2024-02-21T00:43:59;14.40;;;3.60;;
57023;SDS011;42916;54.346;18.562;2024-02-21T00:46:26;15.20;;;2.70;;
57023;SDS011;42916;54.346;18.562;2024-02-21T00:48:52;18.10;;;3.20;;
57023;SDS011;42916;54.346;18.562;2024-02-21T00:51:19;13.30;;;3.50;;
57023;SDS011;42916;54.346;18.562;2024-02-21T00:53:46;14.70;;;3.00;;
57023;SDS011;42916;54.346;18.562;2024-02-21T00:56:12;15.50;;;3.30;;
57023;SDS011;42916;54.346;18.562;2024-02-21T00:58:39;11.70;;;2.80;;
57023;SDS011;42916;54.346;18.562;2024-02-21T01:01:06;12.80;;;2.50;;
57023;SDS011;42916;54.346;18.562;2024-02-21T01:03:32;18.60;;;3.20;;
57023;SDS011;42916;54.346;18.562;2024-02-21T01:05:59;16.10;;;3.30;;
57023;SDS011;42916;54.346;18.562;2024-02-21T01:08:26;15.60;;;3.00;;
57023;SDS011;42916;54.346;18.562;2024-02-21T01:10:52;16.00;;;3.90;;
57023;SDS011;42916;54.346;18.562;2024-02-21T01:13:19;14.30;;;3.40;;
57023;SDS011;42916;54.346;18.562;2024-02-21T01:15:46;15.10;;;3.80;;
57023;SDS011;42916;54.346;18.562;2024-02-21T01:18:12;14.70;;;3.80;;
57023;SDS011;42916;54.346;18.562;2024-02-21T01:20:39;16.30;;;3.60;;
57023;SDS011;42916;54.346;18.562;2024-02-21T01:23:06;14.00;;;3.50;;
57023;SDS011;42916;54.346;18.562;2024-02-21T01:25:33;17.70;;;4.70;;
57023;SDS011;42916;54.346;18.562;2024-02-21T01:27:59;15.20;;;3.90;;
57023;SDS011;42916;54.346;18.562;2024-02-21T01:30:26;12.00;;;3.70;;
57023;SDS011;42916;54.346;18.562;2024-02-21T01:32:52;14.10;;;3.80;;
57023;SDS011;42916;54.346;18.562;2024-02-21T01:35:19;19.30;;;4.30;;
57023;SDS011;42916;54.346;18.562;2024-02-21T01:37:46;14.50;;;4.40;;
57023;SDS011;42916;54.346;18.562;2024-02-21T01:40:12;15.90;;;4.30;;
57023;SDS011;42916;54.346;18.562;2024-02-21T01:42:39;17.90;;;3.50;;
57023;SDS011;42916;54.346;18.562;2024-02-21T01:45:07;10.10;;;3.00;;
57023;SDS011;42916;54.346;18.562;2024-02-21T01:47:34;12.30;;;3.30;;
57023;SDS011;42916;54.346;18.562;2024-02-21T01:50:02;15.30;;;3.90;;
57023;SDS011;42916;54.346;18.562;2024-02-21T01:52:29;18.70;;;4.00;;
57023;SDS011;42916;54.346;18.562;2024-02-21T01:54:57;14.40;;;3.90;;
57023;SDS011;42916;54.346;18.562;2024-02-21T01:57:24;14.70;;;4.40;;
57023;SDS011;42916;54.346;18.562;2024-02-21T01:59:51;10.50;;;3.50;;
57023;SDS011;42916;54.346;18.562;2024-02-21T02:02:18;10.50;;;3.50;;
57023;SDS011;42916;54.346;18.562;2024-02-21T02:04:45;14.30;;;3.30;;
57023;SDS011;42916;54.346;18.562;2024-02-21T02:07:12;12.60;;;4.20;;
57023;SDS011;42916;54.346;18.562;2024-02-21T02:09:39;12.00;;;3.70;;
57023;SDS011;42916;54.346;18.562;2024-02-21T02:12:06;14.00;;;4.40;;
57023;SDS011;42916;54.346;18.562;2024-02-21T02:14:33;15.70;;;4.00;;
57023;SDS011;42916;54.346;18.562;2024-02-21T02:16:59;22.20;;;5.30;;
57023;SDS011;42916;54.346;18.562;2024-02-21T02:19:26;18.10;;;4.10;;
57023;SDS011;42916;54.346;18.562;2024-02-21T02:22:00;11.20;;;3.40;;
57023;SDS011;42916;54.346;18.562;2024-02-21T02:24:35;16.60;;;3.70;;
57023;SDS011;42916;54.346;18.562;2024-02-21T02:27:02;13.70;;;3.50;;
57023;SDS011;42916;54.346;18.562;2024-02-21T02:29:31;14.10;;;4.40;;
57023;SDS011;42916;54.346;18.562;2024-02-21T02:31:58;11.30;;;3.80;;
57023;SDS011;42916;54.346;18.562;2024-02-21T02:34:25;17.70;;;4.20;;
57023;SDS011;42916;54.346;18.562;2024-02-21T02:36:52;12.40;;;3.40;;
57023;SDS011;42916;54.346;18.562;2024-02-21T02:39:18;13.50;;;3.80;;
57023;SDS011;42916;54.346;18.562;2024-02-21T02:41:45;15.10;;;4.70;;
57023;SDS011;42916;54.346;18.562;2024-02-21T02:44:12;11.40;;;4.10;;
57023;SDS011;42916;54.346;18.562;2024-02-21T02:46:40;12.70;;;3.90;;
57023;SDS011;42916;54.346;18.562;2024-02-21T02:49:07;13.00;;;3.80;;
57023;SDS011;42916;54.346;18.562;2024-02-21T02:51:34;16.40;;;4.50;;
57023;SDS011;42916;54.346;18.562;2024-02-21T02:54:01;15.80;;;4.20;;
57023;SDS011;42916;54.346;18.562;2024-02-21T02:56:28;17.30;;;3.40;;
57023;SDS011;42916;54.346;18.562;2024-02-21T02:58:55;12.20;;;3.50;;
57023;SDS011;42916;54.346;18.562;2024-02-21T03:01:22;8.30;;;3.80;;
57023;SDS011;42916;54.346;18.562;2024-02-21T03:03:48;10.20;;;3.20;;
57023;SDS011;42916;54.346;18.562;2024-02-21T03:06:15;12.60;;;3.50;;
57023;SDS011;42916;54.346;18.562;2024-02-21T03:08:42;13.70;;;3.50;;
57023;SDS011;42916;54.346;18.562;2024-02-21T03:11:09;10.90;;;3.90;;
57023;SDS011;42916;54.346;18.562;2024-02-21T03:13:37;11.10;;;3.80;;
57023;SDS011;42916;54.346;18.562;2024-02-21T03:16:04;15.50;;;3.70;;
57023;SDS011;42916;54.346;18.562;2024-02-21T03:18:30;10.80;;;3.90;;
57023;SDS011;42916;54.346;18.562;2024-02-21T03:20:58;17.40;;;4.00;;
57023;SDS011;42916;54.346;18.562;2024-02-21T03:23:24;9.30;;;3.20;;
57023;SDS011;42916;54.346;18.562;2024-02-21T03:25:51;15.30;;;3.60;;
57023;SDS011;42916;54.346;18.562;2024-02-21T03:28:18;12.50;;;3.20;;
57023;SDS011;42916;54.346;18.562;2024-02-21T03:30:44;12.90;;;3.60;;
57023;SDS011;42916;54.346;18.562;2024-02-21T03:33:11;10.30;;;3.30;;
57023;SDS011;42916;54.346;18.562;2024-02-21T03:35:38;21.00;;;3.40;;
57023;SDS011;42916;54.346;18.562;2024-02-21T03:38:04;18.50;;;4.20;;
57023;SDS011;42916;54.346;18.562;2024-02-21T03:40:31;15.80;;;3.80;;
57023;SDS011;42916;54.346;18.562;2024-02-21T03:42:58;14.60;;;4.30;;
57023;SDS011;42916;54.346;18.562;2024-02-21T03:45:24;14.50;;;3.70;;
57023;SDS011;42916;54.346;18.562;2024-02-21T03:47:51;15.10;;;4.30;;
57023;SDS011;42916;54.346;18.562;2024-02-21T03:50:18;13.70;;;3.80;;
57023;SDS011;42916;54.346;18.562;2024-02-21T03:52:45;15.50;;;4.20;;
57023;SDS011;42916;54.346;18.562;2024-02-21T03:55:12;9.40;;;3.60;;
57023;SDS011;42916;54.346;18.562;2024-02-21T03:57:38;14.20;;;3.40;;
57023;SDS011;42916;54.346;18.562;2024-02-21T04:00:05;12.40;;;3.70;;
57023;SDS011;42916;54.346;18.562;2024-02-21T04:02:37;12.90;;;3.90;;
57023;SDS011;42916;54.346;18.562;2024-02-21T04:05:04;11.90;;;3.30;;
57023;SDS011;42916;54.346;18.562;2024-02-21T04:07:31;10.10;;;3.40;;
57023;SDS011;42916;54.346;18.562;2024-02-21T04:09:58;10.90;;;3.40;;
57023;SDS011;42916;54.346;18.562;2024-02-21T04:12:24;12.20;;;3.40;;
57023;SDS011;42916;54.346;18.562;2024-02-21T04:14:51;15.10;;;3.30;;
57023;SDS011;42916;54.346;18.562;2024-02-21T04:17:18;11.40;;;3.70;;
57023;SDS011;42916;54.346;18.562;2024-02-21T04:19:44;14.80;;;3.00;;
57023;SDS011;42916;54.346;18.562;2024-02-21T04:22:11;9.80;;;3.40;;
57023;SDS011;42916;54.346;18.562;2024-02-21T04:24:37;10.50;;;3.10;;
57023;SDS011;42916;54.346;18.562;2024-02-21T04:27:04;9.40;;;3.20;;
57023;SDS011;42916;54.346;18.562;2024-02-21T04:29:31;11.10;;;3.50;;
57023;SDS011;42916;54.346;18.562;2024-02-21T04:31:57;13.30;;;3.80;;
57023;SDS011;42916;54.346;18.562;2024-02-21T04:34:24;11.50;;;3.60;;
57023;SDS011;42916;54.346;18.562;2024-02-21T04:36:50;12.40;;;4.60;;
57023;SDS011;42916;54.346;18.562;2024-02-21T04:39:17;13.70;;;3.90;;
57023;SDS011;42916;54.346;18.562;2024-02-21T04:41:44;11.10;;;4.00;;
57023;SDS011;42916;54.346;18.562;2024-02-21T04:44:10;12.50;;;4.40;;
57023;SDS011;42916;54.346;18.562;2024-02-21T04:46:37;10.50;;;4.50;;
57023;SDS011;42916;54.346;18.562;2024-02-21T04:49:04;11.50;;;4.00;;
57023;SDS011;42916;54.346;18.562;2024-02-21T04:51:30;11.20;;;4.40;;
57023;SDS011;42916;54.346;18.562;2024-02-21T04:53:57;10.50;;;4.80;;
57023;SDS011;42916;54.346;18.562;2024-02-21T04:56:23;11.20;;;4.20;;
57023;SDS011;42916;54.346;18.562;2024-02-21T04:58:51;10.10;;;4.40;;
57023;SDS011;42916;54.346;18.562;2024-02-21T05:01:18;12.10;;;5.60;;
57023;SDS011;42916;54.346;18.562;2024-02-21T05:03:44;10.80;;;4.20;;
57023;SDS011;42916;54.346;18.562;2024-02-21T05:06:11;14.00;;;5.00;;
57023;SDS011;42916;54.346;18.562;2024-02-21T05:08:38;13.50;;;4.40;;
57023;SDS011;42916;54.346;18.562;2024-02-21T05:11:04;10.10;;;4.00;;
57023;SDS011;42916;54.346;18.562;2024-02-21T05:13:31;13.60;;;4.20;;
57023;SDS011;42916;54.346;18.562;2024-02-21T05:15:57;13.70;;;4.40;;
57023;SDS011;42916;54.346;18.562;2024-02-21T05:18:27;10.20;;;4.60;;
57023;SDS011;42916;54.346;18.562;2024-02-21T05:20:54;14.10;;;4.40;;
57023;SDS011;42916;54.346;18.562;2024-02-21T05:23:21;14.20;;;4.30;;
57023;SDS011;42916;54.346;18.562;2024-02-21T05:25:48;9.30;;;3.60;;
57023;SDS011;42916;54.346;18.562;2024-02-21T05:28:14;14.70;;;4.50;;
57023;SDS011;42916;54.346;18.562;2024-02-21T05:30:41;14.20;;;3.80;;
57023;SDS011;42916;54.346;18.562;2024-02-21T05:33:09;11.20;;;4.10;;
57023;SDS011;42916;54.346;18.562;2024-02-21T05:35:36;14.50;;;5.30;;
57023;SDS011;42916;54.346;18.562;2024-02-21T05:38:03;10.10;;;4.30;;
57023;SDS011;42916;54.346;18.562;2024-02-21T05:40:37;10.30;;;4.20;;
57023;SDS011;42916;54.346;18.562;2024-02-21T05:43:04;9.50;;;4.60;;
57023;SDS011;42916;54.346;18.562;2024-02-21T05:45:31;11.00;;;4.80;;
57023;SDS011;42916;54.346;18.562;2024-02-21T05:47:58;9.90;;;4.60;;
57023;SDS011;42916;54.346;18.562;2024-02-21T05:50:25;9.70;;;4.70;;
57023;SDS011;42916;54.346;18.562;2024-02-21T05:52:56;13.70;;;4.70;;
57023;SDS011;42916;54.346;18.562;2024-02-21T05:55:23;9.40;;;4.70;;
57023;SDS011;42916;54.346;18.562;2024-02-21T05:57:53;13.30;;;4.80;;
57023;SDS011;42916;54.346;18.562;2024-02-21T06:00:20;15.00;;;6.40;;
57023;SDS011;42916;54.346;18.562;2024-02-21T06:02:47;12.10;;;4.70;;
57023;SDS011;42916;54.346;18.562;2024-02-21T06:05:14;12.70;;;5.40;;
57023;SDS011;42916;54.346;18.562;2024-02-21T06:07:40;12.20;;;5.60;;
57023;SDS011;42916;54.346;18.562;2024-02-21T06:10:07;12.60;;;5.40;;
57023;SDS011;42916;54.346;18.562;2024-02-21T06:12:35;13.00;;;5.70;;
57023;SDS011;42916;54.346;18.562;2024-02-21T06:15:02;11.50;;;5.30;;
57023;SDS011;42916;54.346;18.562;2024-02-21T06:17:29;12.80;;;6.00;;
57023;SDS011;42916;54.346;18.562;2024-02-21T06:19:56;11.70;;;5.00;;
57023;SDS011;42916;54.346;18.562;2024-02-21T06:22:22;19.50;;;5.70;;
57023;SDS011;42916;54.346;18.562;2024-02-21T06:24:49;18.00;;;7.50;;
57023;SDS011;42916;54.346;18.562;2024-02-21T06:27:16;10.40;;;5.60;;
57023;SDS011;42916;54.346;18.562;2024-02-21T06:29:43;15.90;;;6.00;;
57023;SDS011;42916;54.346;18.562;2024-02-21T06:32:10;12.00;;;5.60;;
57023;SDS011;42916;54.346;18.562;2024-02-21T06:34:37;14.90;;;6.50;;
57023;SDS011;42916;54.346;18.562;2024-02-21T06:37:03;10.70;;;5.40;;
57023;SDS011;42916;54.346;18.562;2024-02-21T06:39:30;11.20;;;5.40;;
57023;SDS011;42916;54.346;18.562;2024-02-21T06:41:57;11.20;;;5.50;;
57023;SDS011;42916;54.346;18.562;2024-02-21T06:44:23;12.60;;;5.70;;
57023;SDS011;42916;54.346;18.562;2024-02-21T06:46:50;12.20;;;5.20;;
57023;SDS011;42916;54.346;18.562;2024-02-21T06:49:17;16.40;;;5.80;;
57023;SDS011;42916;54.346;18.562;2024-02-21T06:54:13;14.90;;;5.70;;
57023;SDS011;42916;54.346;18.562;2024-02-21T06:56:40;11.70;;;5.60;;
57023;SDS011;42916;54.346;18.562;2024-02-21T06:59:08;15.40;;;6.30;;
57023;SDS011;42916;54.346;18.562;2024-02-21T07:01:34;17.00;;;6.70;;
57023;SDS011;42916;54.346;18.562;2024-02-21T07:04:03;15.80;;;6.00;;
57023;SDS011;42916;54.346;18.562;2024-02-21T07:06:30;15.80;;;6.30;;
57023;SDS011;42916;54.346;18.562;2024-02-21T07:08:58;15.70;;;5.60;;
57023;SDS011;42916;54.346;18.562;2024-02-21T07:11:25;14.40;;;5.10;;
57023;SDS011;42916;54.346;18.562;2024-02-21T07:13:52;14.50;;;6.20;;
57023;SDS011;42916;54.346;18.562;2024-02-21T07:16:18;15.60;;;6.40;;
57023;SDS011;42916;54.346;18.562;2024-02-21T07:18:45;17.40;;;6.00;;
57023;SDS011;42916;54.346;18.562;2024-02-21T07:21:12;15.00;;;6.10;;
57023;SDS011;42916;54.346;18.562;2024-02-21T07:23:41;19.70;;;7.10;;
57023;SDS011;42916;54.346;18.562;2024-02-21T07:26:08;21.40;;;7.50;;
57023;SDS011;42916;54.346;18.562;2024-02-21T07:28:35;23.40;;;8.50;;
57023;SDS011;42916;54.346;18.562;2024-02-21T07:31:02;16.30;;;6.00;;
57023;SDS011;42916;54.346;18.562;2024-02-21T07:33:29;21.20;;;7.50;;
57023;SDS011;42916;54.346;18.562;2024-02-21T07:35:57;17.00;;;6.70;;
57023;SDS011;42916;54.346;18.562;2024-02-21T07:38:23;15.60;;;6.50;;
57023;SDS011;42916;54.346;18.562;2024-02-21T07:40:50;16.10;;;7.20;;
57023;SDS011;42916;54.346;18.562;2024-02-21T07:43:17;25.60;;;9.30;;
57023;SDS011;42916;54.346;18.562;2024-02-21T07:45:43;18.30;;;7.90;;
57023;SDS011;42916;54.346;18.562;2024-02-21T07:48:10;22.10;;;7.20;;
57023;SDS011;42916;54.346;18.562;2024-02-21T07:50:37;22.00;;;8.10;;
57023;SDS011;42916;54.346;18.562;2024-02-21T07:53:04;18.90;;;8.50;;
57023;SDS011;42916;54.346;18.562;2024-02-21T07:55:30;21.00;;;9.00;;
57023;SDS011;42916;54.346;18.562;2024-02-21T07:57:57;21.40;;;9.20;;
57023;SDS011;42916;54.346;18.562;2024-02-21T08:00:24;19.70;;;8.20;;
57023;SDS011;42916;54.346;18.562;2024-02-21T08:02:51;19.40;;;8.80;;
57023;SDS011;42916;54.346;18.562;2024-02-21T08:05:17;19.90;;;8.00;;
57023;SDS011;42916;54.346;18.562;2024-02-21T08:07:44;22.10;;;8.60;;
57023;SDS011;42916;54.346;18.562;2024-02-21T08:10:11;21.50;;;8.30;;
57023;SDS011;42916;54.346;18.562;2024-02-21T08:12:38;22.00;;;8.10;;
57023;SDS011;42916;54.346;18.562;2024-02-21T08:15:05;20.00;;;7.70;;
57023;SDS011;42916;54.346;18.562;2024-02-21T08:17:33;21.20;;;8.30;;
57023;SDS011;42916;54.346;18.562;2024-02-21T08:19:59;17.40;;;8.00;;
57023;SDS011;42916;54.346;18.562;2024-02-21T08:22:26;18.10;;;7.30;;
57023;SDS011;42916;54.346;18.562;2024-02-21T08:24:53;22.00;;;7.80;;
57023;SDS011;42916;54.346;18.562;2024-02-21T08:27:19;19.20;;;7.30;;
57023;SDS011;42916;54.346;18.562;2024-02-21T08:29:46;16.50;;;7.50;;
57023;SDS011;42916;54.346;18.562;2024-02-21T08:32:13;16.40;;;8.40;;
57023;SDS011;42916;54.346;18.562;2024-02-21T08:34:39;17.10;;;7.80;;
57023;SDS011;42916;54.346;18.562;2024-02-21T08:37:06;13.40;;;7.30;;
57023;SDS011;42916;54.346;18.562;2024-02-21T08:39:33;15.20;;;6.70;;
57023;SDS011;42916;54.346;18.562;2024-02-21T08:41:59;14.70;;;7.70;;
57023;SDS011;42916;54.346;18.562;2024-02-21T08:44:27;20.00;;;8.00;;
57023;SDS011;42916;54.346;18.562;2024-02-21T08:46:54;17.90;;;7.80;;
57023;SDS011;42916;54.346;18.562;2024-02-21T08:49:21;16.10;;;7.60;;
57023;SDS011;42916;54.346;18.562;2024-02-21T08:51:48;17.40;;;7.40;;
57023;SDS011;42916;54.346;18.562;2024-02-21T08:54:15;19.60;;;7.70;;
57023;SDS011;42916;54.346;18.562;2024-02-21T08:56:42;16.80;;;8.10;;
57023;SDS011;42916;54.346;18.562;2024-02-21T08:59:08;16.50;;;7.30;;
57023;SDS011;42916;54.346;18.562;2024-02-21T09:01:35;14.40;;;7.90;;
57023;SDS011;42916;54.346;18.562;2024-02-21T09:04:02;20.20;;;8.20;;
57023;SDS011;42916;54.346;18.562;2024-02-21T09:06:29;16.00;;;7.50;;
57023;SDS011;42916;54.346;18.562;2024-02-21T09:08:56;18.20;;;8.10;;
57023;SDS011;42916;54.346;18.562;2024-02-21T09:11:24;15.00;;;7.50;;
57023;SDS011;42916;54.346;18.562;2024-02-21T09:13:51;20.30;;;8.90;;
57023;SDS011;42916;54.346;18.562;2024-02-21T09:16:18;18.00;;;8.40;;
57023;SDS011;42916;54.346;18.562;2024-02-21T09:18:44;23.80;;;8.30;;
57023;SDS011;42916;54.346;18.562;2024-02-21T09:21:11;16.10;;;8.90;;
57023;SDS011;42916;54.346;18.562;2024-02-21T09:23:38;18.00;;;8.60;;
57023;SDS011;42916;54.346;18.562;2024-02-21T09:26:04;16.20;;;8.40;;
57023;SDS011;42916;54.346;18.562;2024-02-21T09:28:31;17.10;;;8.90;;
57023;SDS011;42916;54.346;18.562;2024-02-21T09:30:59;15.90;;;8.50;;
57023;SDS011;42916;54.346;18.562;2024-02-21T09:33:26;16.80;;;8.10;;
57023;SDS011;42916;54.346;18.562;2024-02-21T09:35:53;18.80;;;8.80;;
57023;SDS011;42916;54.346;18.562;2024-02-21T09:38:20;16.00;;;8.90;;
57023;SDS011;42916;54.346;18.562;2024-02-21T09:40:47;17.40;;;9.20;;
57023;SDS011;42916;54.346;18.562;2024-02-21T09:43:22;16.20;;;9.60;;
57023;SDS011;42916;54.346;18.562;2024-02-21T09:45:49;16.30;;;8.00;;
57023;SDS011;42916;54.346;18.562;2024-02-21T09:48:39;17.00;;;8.70;;
57023;SDS011;42916;54.346;18.562;2024-02-21T09:51:15;15.50;;;8.60;;
57023;SDS011;42916;54.346;18.562;2024-02-21T09:53:45;16.40;;;7.90;;
57023;SDS011;42916;54.346;18.562;2024-02-21T09:56:14;13.90;;;7.90;;
57023;SDS011;42916;54.346;18.562;2024-02-21T09:58:40;15.70;;;7.70;;
57023;SDS011;42916;54.346;18.562;2024-02-21T10:01:08;13.70;;;8.60;;
57023;SDS011;42916;54.346;18.562;2024-02-21T10:03:35;16.00;;;8.00;;
57023;SDS011;42916;54.346;18.562;2024-02-21T10:06:01;14.00;;;7.00;;
57023;SDS011;42916;54.346;18.562;2024-02-21T10:08:28;13.80;;;6.30;;
57023;SDS011;42916;54.346;18.562;2024-02-21T10:10:55;10.50;;;6.50;;
57023;SDS011;42916;54.346;18.562;2024-02-21T10:13:26;9.40;;;5.80;;
57023;SDS011;42916;54.346;18.562;2024-02-21T10:16:01;8.00;;;5.10;;
57023;SDS011;42916;54.346;18.562;2024-02-21T10:18:29;12.00;;;7.00;;
57023;SDS011;42916;54.346;18.562;2024-02-21T10:21:02;10.30;;;6.30;;
57023;SDS011;42916;54.346;18.562;2024-02-21T10:23:47;9.90;;;5.70;;
57023;SDS011;42916;54.346;18.562;2024-02-21T10:26:16;10.20;;;6.20;;
57023;SDS011;42916;54.346;18.562;2024-02-21T10:28:44;10.20;;;5.30;;
57023;SDS011;42916;54.346;18.562;2024-02-21T10:33:56;7.70;;;4.40;;
57023;SDS011;42916;54.346;18.562;2024-02-21T10:36:24;7.50;;;4.20;;
57023;SDS011;42916;54.346;18.562;2024-02-21T10:38:52;6.90;;;4.30;;
57023;SDS011;42916;54.346;18.562;2024-02-21T10:41:21;6.70;;;4.10;;
57023;SDS011;42916;54.346;18.562;2024-02-21T10:43:52;5.80;;;3.50;;
57023;SDS011;42916;54.346;18.562;2024-02-21T10:46:21;6.10;;;3.90;;
57023;SDS011;42916;54.346;18.562;2024-02-21T10:49:06;5.00;;;3.40;;
57023;SDS011;42916;54.346;18.562;2024-02-21T10:51:39;7.50;;;4.00;;
57023;SDS011;42916;54.346;18.562;2024-02-21T10:57:14;7.00;;;3.80;;
57023;SDS011;42916;54.346;18.562;2024-02-21T10:59:41;5.70;;;3.70;;
57023;SDS011;42916;54.346;18.562;2024-02-21T11:04:37;5.90;;;3.40;;
57023;SDS011;42916;54.346;18.562;2024-02-21T11:07:06;7.60;;;4.40;;
57023;SDS011;42916;54.346;18.562;2024-02-21T11:09:34;4.90;;;3.60;;
57023;SDS011;42916;54.346;18.562;2024-02-21T11:12:02;6.10;;;3.90;;
57023;SDS011;42916;54.346;18.562;2024-02-21T11:14:31;7.50;;;3.80;;
57023;SDS011;42916;54.346;18.562;2024-02-21T11:17:18;5.70;;;4.00;;
57023;SDS011;42916;54.346;18.562;2024-02-21T11:19:47;5.40;;;3.50;;
57023;SDS011;42916;54.346;18.562;2024-02-21T11:22:15;4.90;;;3.70;;
57023;SDS011;42916;54.346;18.562;2024-02-21T11:24:43;6.10;;;3.50;;
57023;SDS011;42916;54.346;18.562;2024-02-21T11:27:19;5.10;;;3.50;;
57023;SDS011;42916;54.346;18.562;2024-02-21T11:29:56;5.70;;;3.60;;
57023;SDS011;42916;54.346;18.562;2024-02-21T11:32:24;5.60;;;2.90;;
57023;SDS011;42916;54.346;18.562;2024-02-21T11:34:58;5.00;;;3.30;;
57023;SDS011;42916;54.346;18.562;2024-02-21T11:37:28;5.00;;;3.40;;
57023;SDS011;42916;54.346;18.562;2024-02-21T11:39:55;5.20;;;3.20;;
57023;SDS011;42916;54.346;18.562;2024-02-21T11:42:24;5.80;;;3.60;;
57023;SDS011;42916;54.346;18.562;2024-02-21T11:44:53;4.20;;;3.00;;
57023;SDS011;42916;54.346;18.562;2024-02-21T11:47:23;4.40;;;2.80;;
57023;SDS011;42916;54.346;18.562;2024-02-21T11:49:51;5.00;;;3.30;;
57023;SDS011;42916;54.346;18.562;2024-02-21T11:52:21;4.90;;;3.30;;
57023;SDS011;42916;54.346;18.562;2024-02-21T11:54:51;4.10;;;2.80;;
57023;SDS011;42916;54.346;18.562;2024-02-21T11:57:24;4.40;;;3.60;;
57023;SDS011;42916;54.346;18.562;2024-02-21T11:59:50;6.00;;;3.30;;
57023;SDS011;42916;54.346;18.562;2024-02-21T12:02:19;4.50;;;3.30;;
57023;SDS011;42916;54.346;18.562;2024-02-21T12:04:45;7.70;;;3.70;;
57023;SDS011;42916;54.346;18.562;2024-02-21T12:07:12;5.00;;;3.80;;
57023;SDS011;42916;54.346;18.562;2024-02-21T12:09:41;5.50;;;3.50;;
57023;SDS011;42916;54.346;18.562;2024-02-21T12:12:08;4.60;;;3.60;;
57023;SDS011;42916;54.346;18.562;2024-02-21T12:14:35;5.50;;;3.10;;
57023;SDS011;42916;54.346;18.562;2024-02-21T12:17:02;3.90;;;3.00;;
57023;SDS011;42916;54.346;18.562;2024-02-21T12:19:32;5.20;;;2.90;;
57023;SDS011;42916;54.346;18.562;2024-02-21T12:22:00;3.00;;;2.60;;
57023;SDS011;42916;54.346;18.562;2024-02-21T12:24:28;4.40;;;2.70;;
57023;SDS011;42916;54.346;18.562;2024-02-21T12:26:55;4.80;;;3.00;;
57023;SDS011;42916;54.346;18.562;2024-02-21T12:29:26;3.50;;;2.90;;
57023;SDS011;42916;54.346;18.562;2024-02-21T12:31:53;4.60;;;2.50;;
57023;SDS011;42916;54.346;18.562;2024-02-21T12:34:23;4.20;;;2.10;;
57023;SDS011;42916;54.346;18.562;2024-02-21T12:36:51;3.10;;;2.00;;
57023;SDS011;42916;54.346;18.562;2024-02-21T12:39:18;6.70;;;3.80;;
57023;SDS011;42916;54.346;18.562;2024-02-21T12:41:45;11.30;;;4.50;;
57023;SDS011;42916;54.346;18.562;2024-02-21T12:44:12;7.00;;;3.70;;
57023;SDS011;42916;54.346;18.562;2024-02-21T12:46:39;5.70;;;2.90;;
57023;SDS011;42916;54.346;18.562;2024-02-21T12:49:06;5.40;;;2.90;;
57023;SDS011;42916;54.346;18.562;2024-02-21T12:51:34;3.90;;;2.20;;
57023;SDS011;42916;54.346;18.562;2024-02-21T12:54:01;5.70;;;2.50;;
57023;SDS011;42916;54.346;18.562;2024-02-21T12:56:31;6.60;;;3.20;;
57023;SDS011;42916;54.346;18.562;2024-02-21T12:58:58;5.50;;;2.90;;
57023;SDS011;42916;54.346;18.562;2024-02-21T13:01:24;6.40;;;3.60;;
57023;SDS011;42916;54.346;18.562;2024-02-21T13:03:52;5.20;;;2.20;;
57023;SDS011;42916;54.346;18.562;2024-02-21T13:06:20;6.60;;;3.50;;
57023;SDS011;42916;54.346;18.562;2024-02-21T13:08:47;6.60;;;2.80;;
57023;SDS011;42916;54.346;18.562;2024-02-21T13:11:13;7.50;;;3.70;;
57023;SDS011;42916;54.346;18.562;2024-02-21T13:13:40;7.70;;;3.90;;
57023;SDS011;42916;54.346;18.562;2024-02-21T13:16:07;6.80;;;3.40;;
57023;SDS011;42916;54.346;18.562;2024-02-21T13:18:34;6.50;;;2.40;;
57023;SDS011;42916;54.346;18.562;2024-02-21T13:21:01;5.50;;;2.40;;
57023;SDS011;42916;54.346;18.562;2024-02-21T13:23:28;7.00;;;3.70;;
57023;SDS011;42916;54.346;18.562;2024-02-21T13:25:55;9.30;;;3.70;;
57023;SDS011;42916;54.346;18.562;2024-02-21T13:28:22;12.20;;;6.00;;
57023;SDS011;42916;54.346;18.562;2024-02-21T13:30:48;6.00;;;2.90;;
57023;SDS011;42916;54.346;18.562;2024-02-21T13:33:15;6.40;;;3.40;;
57023;SDS011;42916;54.346;18.562;2024-02-21T13:35:42;6.90;;;4.80;;
57023;SDS011;42916;54.346;18.562;2024-02-21T13:38:09;6.80;;;4.20;;
57023;SDS011;42916;54.346;18.562;2024-02-21T13:40:51;5.00;;;3.40;;
57023;SDS011;42916;54.346;18.562;2024-02-21T13:43:18;4.60;;;3.10;;
57023;SDS011;42916;54.346;18.562;2024-02-21T13:45:55;3.80;;;2.60;;
57023;SDS011;42916;54.346;18.562;2024-02-21T13:48:24;4.30;;;2.70;;
57023;SDS011;42916;54.346;18.562;2024-02-21T13:50:51;7.20;;;3.80;;
57023;SDS011;42916;54.346;18.562;2024-02-21T13:53:18;7.40;;;5.00;;
57023;SDS011;42916;54.346;18.562;2024-02-21T13:55:45;7.40;;;3.90;;
57023;SDS011;42916;54.346;18.562;2024-02-21T13:58:11;9.10;;;5.60;;
57023;SDS011;42916;54.346;18.562;2024-02-21T14:00:39;8.80;;;5.60;;
57023;SDS011;42916;54.346;18.562;2024-02-21T14:03:08;8.40;;;4.10;;
57023;SDS011;42916;54.346;18.562;2024-02-21T14:05:38;6.90;;;3.90;;
57023;SDS011;42916;54.346;18.562;2024-02-21T14:08:07;6.10;;;3.60;;
57023;SDS011;42916;54.346;18.562;2024-02-21T14:10:34;7.50;;;3.30;;
57023;SDS011;42916;54.346;18.562;2024-02-21T14:13:01;8.00;;;4.40;;
57023;SDS011;42916;54.346;18.562;2024-02-21T14:15:27;7.00;;;4.30;;
57023;SDS011;42916;54.346;18.562;2024-02-21T14:17:54;6.40;;;4.00;;
57023;SDS011;42916;54.346;18.562;2024-02-21T14:20:22;7.70;;;4.00;;
57023;SDS011;42916;54.346;18.562;2024-02-21T14:22:49;6.20;;;4.20;;
57023;SDS011;42916;54.346;18.562;2024-02-21T14:25:16;5.80;;;4.40;;
57023;SDS011;42916;54.346;18.562;2024-02-21T14:27:42;7.40;;;5.50;;
57023;SDS011;42916;54.346;18.562;2024-02-21T14:30:10;6.20;;;4.00;;
57023;SDS011;42916;54.346;18.562;2024-02-21T14:32:37;5.90;;;3.50;;
57023;SDS011;42916;54.346;18.562;2024-02-21T14:35:04;7.70;;;4.10;;
57023;SDS011;42916;54.346;18.562;2024-02-21T14:37:32;7.40;;;4.30;;
57023;SDS011;42916;54.346;18.562;2024-02-21T14:39:59;9.00;;;4.20;;